Time;durP1;ratioP1;P1;durP2;ratioP2;P2;SDS_P1;SDS_P2;PMS_P1;PMS_P2;Temp;Humidity;BMP_temperature;BMP_pressure;BME280_temperature;BME280_humidity;BME280_pressure;Samples;Min_cycle;Max_cycle;Signal;HPM_P1;HPM_P2
2023/07/07 00:02:24;;;;;;;8.82;4.00;;;;;;;;;;4969951;28;20057;-64
2023/07/07 00:04:51;;;;;;;7.95;3.97;;;;;;;;;;4964704;28;20113;-65
2023/07/07 00:07:18;;;;;;;9.25;4.15;;;;;;;;;;4971086;28;20573;-65
2023/07/07 00:09:45;;;;;;;8.55;4.43;;;;;;;;;;4952480;28;20045;-65
2023/07/07 00:12:16;;;;;;;8.27;4.20;;;;;;;;;;4971180;28;20043;-64
2023/07/07 00:14:44;;;;;;;9.05;4.32;;;;;;;;;;4969398;28;20050;-65
2023/07/07 00:17:15;;;;;;;8.25;3.88;;;;;;;;;;4971319;28;20050;-64
2023/07/07 00:19:45;;;;;;;7.15;3.90;;;;;;;;;;4971636;28;20098;-64
2023/07/07 00:22:14;;;;;;;7.05;3.95;;;;;;;;;;4969676;28;20042;-64
2023/07/07 00:24:42;;;;;;;7.15;3.75;;;;;;;;;;4970909;28;20041;-64
2023/07/07 00:27:09;;;;;;;7.45;4.18;;;;;;;;;;4970896;28;20062;-65
2023/07/07 00:29:38;;;;;;;8.95;4.75;;;;;;;;;;4968489;28;20051;-64
2023/07/07 00:32:06;;;;;;;8.25;4.68;;;;;;;;;;4951552;28;20476;-64
2023/07/07 00:34:32;;;;;;;7.43;4.22;;;;;;;;;;4970319;28;20045;-65
2023/07/07 00:36:58;;;;;;;9.00;4.18;;;;;;;;;;4970125;28;20161;-65
2023/07/07 00:39:24;;;;;;;6.85;3.78;;;;;;;;;;4970829;28;20047;-65
2023/07/07 00:41:50;;;;;;;9.10;4.00;;;;;;;;;;4970247;28;20039;-65
2023/07/07 00:44:16;;;;;;;8.25;4.47;;;;;;;;;;4968569;28;20054;-65
2023/07/07 00:46:42;;;;;;;6.35;3.67;;;;;;;;;;4969668;28;20046;-65
2023/07/07 00:49:10;;;;;;;13.43;5.00;;;;;;;;;;4953053;28;20035;-65
2023/07/07 00:51:43;;;;;;;8.45;4.10;;;;;;;;;;4970730;28;20043;-64
2023/07/07 00:54:14;;;;;;;8.80;4.65;;;;;;;;;;4970150;28;20042;-64
2023/07/07 00:56:43;;;;;;;9.20;4.47;;;;;;;;;;4971238;28;20416;-64
2023/07/07 00:59:14;;;;;;;9.23;4.90;;;;;;;;;;4970050;28;20105;-64
2023/07/07 01:01:42;;;;;;;8.23;4.22;;;;;;;;;;4970123;28;20101;-64
2023/07/07 01:04:12;;;;;;;7.38;4.05;;;;;;;;;;4965062;28;20051;-64
2023/07/07 01:06:43;;;;;;;9.10;4.88;;;;;;;;;;4970848;28;20107;-64
2023/07/07 01:09:09;;;;;;;7.78;4.30;;;;;;;;;;4968947;28;20039;-64
2023/07/07 01:11:36;;;;;;;8.20;4.22;;;;;;;;;;4970128;28;20138;-65
2023/07/07 01:14:05;;;;;;;8.18;4.40;;;;;;;;;;4969322;28;20054;-65
2023/07/07 01:16:44;;;;;;;9.27;4.72;;;;;;;;;;4969591;28;20498;-64
2023/07/07 01:19:31;;;;;;;9.70;4.50;;;;;;;;;;5145759;23;20174;-64
2023/07/07 01:21:59;;;;;;;11.52;4.68;;;;;;;;;;4985849;28;20442;-64
2023/07/07 01:24:27;;;;;;;8.07;4.13;;;;;;;;;;4997229;23;20046;-58
2023/07/07 01:27:14;;;;;;;6.47;3.97;;;;;;;;;;4970423;28;20522;-58
2023/07/07 01:29:55;;;;;;;8.77;4.95;;;;;;;;;;4990311;28;20072;-58
2023/07/07 01:32:25;;;;;;;8.88;4.88;;;;;;;;;;4977602;28;20050;-58
2023/07/07 01:34:58;;;;;;;9.85;4.22;;;;;;;;;;4951841;28;20493;-58
2023/07/07 01:37:28;;;;;;;9.80;4.68;;;;;;;;;;4959383;28;20051;-58
2023/07/07 01:39:55;;;;;;;8.77;4.53;;;;;;;;;;4955595;28;20077;-58
2023/07/07 01:42:25;;;;;;;7.32;4.32;;;;;;;;;;4960186;28;20043;-57
2023/07/07 01:45:22;;;;;;;9.02;4.60;;;;;;;;;;4960828;28;20076;-58
2023/07/07 01:48:09;;;;;;;9.00;5.60;;;;;;;;;;4944093;29;20063;-58
2023/07/07 01:50:36;;;;;;;8.52;4.57;;;;;;;;;;4938317;28;20491;-57
2023/07/07 01:53:07;;;;;;;7.93;4.90;;;;;;;;;;4972456;28;20691;-58
2023/07/07 01:55:36;;;;;;;9.02;4.80;;;;;;;;;;4954163;28;20252;-57
2023/07/07 01:58:03;;;;;;;8.85;4.63;;;;;;;;;;4950767;28;20047;-58
2023/07/07 02:00:30;;;;;;;8.38;5.22;;;;;;;;;;4952514;28;20054;-58
2023/07/07 02:02:57;;;;;;;7.97;4.60;;;;;;;;;;4953195;28;20050;-58
2023/07/07 02:05:23;;;;;;;9.18;5.03;;;;;;;;;;4952153;28;20417;-58
2023/07/07 02:07:50;;;;;;;9.10;5.05;;;;;;;;;;4952849;28;20538;-57
2023/07/07 02:10:17;;;;;;;10.40;5.35;;;;;;;;;;4949965;28;20102;-58
2023/07/07 02:12:44;;;;;;;10.15;5.00;;;;;;;;;;4950126;28;20092;-58
2023/07/07 02:15:10;;;;;;;8.07;4.53;;;;;;;;;;4957347;28;20114;-58
2023/07/07 02:17:36;;;;;;;7.35;4.72;;;;;;;;;;4979472;28;20047;-58
2023/07/07 02:20:03;;;;;;;7.32;4.35;;;;;;;;;;4957883;28;20038;-58
2023/07/07 02:22:29;;;;;;;9.38;4.50;;;;;;;;;;4976007;28;20060;-59
2023/07/07 02:24:55;;;;;;;9.57;5.07;;;;;;;;;;4956699;28;20043;-58
2023/07/07 02:27:21;;;;;;;10.02;4.45;;;;;;;;;;4953753;28;20036;-58
2023/07/07 02:29:47;;;;;;;7.93;4.43;;;;;;;;;;4959085;28;20493;-58
2023/07/07 02:32:15;;;;;;;7.22;4.45;;;;;;;;;;4955169;28;20093;-58
2023/07/07 02:34:47;;;;;;;8.23;5.00;;;;;;;;;;4960513;28;20030;-59
2023/07/07 02:37:13;;;;;;;7.60;4.60;;;;;;;;;;4958115;28;20044;-59
2023/07/07 02:39:40;;;;;;;11.95;5.05;;;;;;;;;;4954502;29;20442;-59
2023/07/07 02:42:08;;;;;;;10.77;4.93;;;;;;;;;;4963598;28;20046;-58
2023/07/07 02:44:34;;;;;;;9.38;5.28;;;;;;;;;;4965567;28;20410;-59
2023/07/07 02:47:02;;;;;;;9.73;4.70;;;;;;;;;;4963035;28;20078;-58
2023/07/07 02:49:28;;;;;;;7.93;4.78;;;;;;;;;;4966279;28;20458;-58
2023/07/07 02:51:54;;;;;;;8.77;5.07;;;;;;;;;;4962162;28;20414;-57
2023/07/07 02:54:21;;;;;;;9.80;5.35;;;;;;;;;;4956629;28;20086;-58
2023/07/07 02:56:47;;;;;;;8.27;5.22;;;;;;;;;;4946797;28;20074;-58
2023/07/07 02:59:13;;;;;;;8.77;4.80;;;;;;;;;;4954169;28;20039;-58
2023/07/07 03:01:44;;;;;;;7.93;4.43;;;;;;;;;;4953320;28;20045;-58
2023/07/07 03:04:10;;;;;;;8.35;5.15;;;;;;;;;;4960945;28;20075;-59
2023/07/07 03:06:36;;;;;;;9.93;6.13;;;;;;;;;;4956229;28;20389;-58
2023/07/07 03:09:03;;;;;;;9.35;4.90;;;;;;;;;;4939235;28;20058;-59
2023/07/07 03:11:29;;;;;;;9.38;5.10;;;;;;;;;;4956180;28;20042;-59
2023/07/07 03:13:56;;;;;;;12.00;5.38;;;;;;;;;;4952980;28;20090;-59
2023/07/07 03:16:23;;;;;;;10.77;4.75;;;;;;;;;;4949381;28;20055;-59
2023/07/07 03:18:50;;;;;;;8.80;4.88;;;;;;;;;;4949773;28;20458;-58
2023/07/07 03:21:17;;;;;;;9.27;5.10;;;;;;;;;;4953382;28;20134;-58
2023/07/07 03:23:43;;;;;;;10.18;5.22;;;;;;;;;;4953766;28;20043;-59
2023/07/07 03:26:11;;;;;;;9.07;5.13;;;;;;;;;;4958486;28;20055;-58
2023/07/07 03:28:37;;;;;;;9.70;5.63;;;;;;;;;;4953129;28;20121;-58
2023/07/07 03:31:17;;;;;;;10.93;5.60;;;;;;;;;;4953769;28;20046;-59
2023/07/07 03:33:44;;;;;;;9.02;4.95;;;;;;;;;;4947926;28;20147;-59
2023/07/07 03:36:11;;;;;;;9.07;5.15;;;;;;;;;;4953627;28;20410;-59
2023/07/07 03:38:40;;;;;;;9.88;5.53;;;;;;;;;;4950601;29;20039;-58
2023/07/07 03:41:06;;;;;;;9.88;5.25;;;;;;;;;;4945656;29;20081;-58
2023/07/07 03:43:33;;;;;;;9.20;5.10;;;;;;;;;;4953158;28;20049;-58
2023/07/07 03:46:00;;;;;;;9.50;5.25;;;;;;;;;;4953657;28;20047;-59
2023/07/07 03:48:26;;;;;;;11.02;5.10;;;;;;;;;;4950144;28;20412;-59
2023/07/07 03:51:02;;;;;;;10.68;5.25;;;;;;;;;;4948028;28;20564;-58
2023/07/07 03:53:29;;;;;;;9.02;5.18;;;;;;;;;;4953822;28;20063;-59
2023/07/07 03:55:55;;;;;;;8.30;5.13;;;;;;;;;;4953014;28;20039;-58
2023/07/07 03:58:22;;;;;;;9.02;5.03;;;;;;;;;;4945890;28;20122;-58
2023/07/07 04:00:48;;;;;;;9.90;5.55;;;;;;;;;;4948216;29;20401;-59
2023/07/07 04:03:15;;;;;;;9.27;5.78;;;;;;;;;;4952759;28;20405;-59
2023/07/07 04:05:45;;;;;;;9.65;5.43;;;;;;;;;;4952222;29;20039;-59
2023/07/07 04:08:13;;;;;;;8.90;4.75;;;;;;;;;;4946273;28;20039;-59
2023/07/07 04:10:40;;;;;;;9.70;5.93;;;;;;;;;;4944725;28;20046;-59
2023/07/07 04:13:07;;;;;;;10.68;5.30;;;;;;;;;;4949354;28;20070;-59
2023/07/07 04:15:33;;;;;;;10.52;5.97;;;;;;;;;;4949247;28;20523;-59
2023/07/07 04:17:59;;;;;;;9.27;5.93;;;;;;;;;;4948705;28;20185;-59
2023/07/07 04:20:25;;;;;;;10.95;5.78;;;;;;;;;;4953031;28;20437;-59
2023/07/07 04:22:51;;;;;;;10.65;5.97;;;;;;;;;;4951656;28;20058;-58
2023/07/07 04:25:17;;;;;;;12.52;6.38;;;;;;;;;;4950480;29;20043;-59
2023/07/07 04:27:45;;;;;;;10.13;7.30;;;;;;;;;;4964241;28;20059;-59
2023/07/07 04:30:11;;;;;;;12.32;8.25;;;;;;;;;;4945485;28;20050;-59
2023/07/07 04:32:38;;;;;;;16.13;9.38;;;;;;;;;;4947780;28;20130;-59
2023/07/07 04:35:04;;;;;;;13.85;8.50;;;;;;;;;;4944420;28;20043;-58
2023/07/07 04:37:31;;;;;;;16.67;9.93;;;;;;;;;;4948156;28;20054;-59
2023/07/07 04:39:57;;;;;;;16.35;10.00;;;;;;;;;;4982308;28;20429;-59
2023/07/07 04:42:24;;;;;;;13.88;9.27;;;;;;;;;;4952183;28;20465;-60
2023/07/07 04:44:50;;;;;;;18.05;9.95;;;;;;;;;;4952488;28;20446;-59
2023/07/07 04:47:16;;;;;;;18.55;10.15;;;;;;;;;;4973944;28;20614;-57
2023/07/07 04:49:42;;;;;;;15.57;10.85;;;;;;;;;;4946134;28;20050;-58
2023/07/07 04:52:08;;;;;;;15.48;10.65;;;;;;;;;;4940473;28;20382;-58
2023/07/07 04:54:35;;;;;;;15.95;10.50;;;;;;;;;;4950713;28;20039;-57
2023/07/07 04:57:03;;;;;;;15.95;11.00;;;;;;;;;;4942052;28;20044;-59
2023/07/07 04:59:31;;;;;;;17.20;11.02;;;;;;;;;;4938761;28;21115;-58
2023/07/07 05:01:57;;;;;;;17.83;11.80;;;;;;;;;;4939192;28;20048;-59
2023/07/07 05:04:23;;;;;;;16.35;11.38;;;;;;;;;;4934299;28;20066;-58
2023/07/07 05:06:49;;;;;;;16.77;10.48;;;;;;;;;;4939145;28;20043;-59
2023/07/07 05:09:16;;;;;;;16.83;12.15;;;;;;;;;;4945055;28;20078;-59
2023/07/07 05:11:42;;;;;;;20.63;12.00;;;;;;;;;;4935994;28;20382;-58
2023/07/07 05:14:08;;;;;;;17.25;12.10;;;;;;;;;;4937682;28;20580;-58
2023/07/07 05:16:40;;;;;;;18.42;13.00;;;;;;;;;;4941531;28;20098;-58
2023/07/07 05:19:07;;;;;;;17.85;11.48;;;;;;;;;;4946219;28;20079;-59
2023/07/07 05:21:33;;;;;;;16.40;12.05;;;;;;;;;;4939446;28;20043;-59
2023/07/07 05:23:59;;;;;;;16.08;11.48;;;;;;;;;;4945193;28;20039;-58
2023/07/07 05:26:29;;;;;;;19.08;12.30;;;;;;;;;;4953370;28;20039;-59
2023/07/07 05:29:05;;;;;;;16.63;11.90;;;;;;;;;;4958586;28;20036;-58
2023/07/07 05:31:32;;;;;;;15.82;10.82;;;;;;;;;;4952541;28;20406;-59
2023/07/07 05:34:02;;;;;;;16.70;11.60;;;;;;;;;;4955397;28;20121;-58
2023/07/07 05:36:29;;;;;;;14.98;11.95;;;;;;;;;;4983655;28;20047;-59
2023/07/07 05:38:56;;;;;;;17.90;11.85;;;;;;;;;;4956472;28;20051;-58
2023/07/07 05:41:22;;;;;;;13.52;11.27;;;;;;;;;;4950192;28;20498;-58
2023/07/07 05:43:49;;;;;;;20.08;12.38;;;;;;;;;;4948863;28;20070;-58
2023/07/07 05:46:17;;;;;;;17.88;11.20;;;;;;;;;;4973087;28;20098;-59
2023/07/07 05:48:47;;;;;;;15.25;10.90;;;;;;;;;;4944635;28;20048;-58
2023/07/07 05:51:16;;;;;;;16.92;12.43;;;;;;;;;;4953739;28;20043;-58
2023/07/07 05:53:43;;;;;;;15.68;13.00;;;;;;;;;;4944415;28;20043;-57
2023/07/07 05:56:30;;;;;;;15.30;11.00;;;;;;;;;;4955413;28;20049;-58
2023/07/07 05:58:56;;;;;;;17.15;12.25;;;;;;;;;;4945247;28;20107;-59
2023/07/07 06:01:22;;;;;;;17.15;12.30;;;;;;;;;;4939358;28;20054;-58
2023/07/07 06:03:48;;;;;;;16.45;11.45;;;;;;;;;;4957772;28;20082;-61
2023/07/07 06:06:15;;;;;;;14.75;10.95;;;;;;;;;;4949713;28;20529;-60
2023/07/07 06:08:41;;;;;;;16.58;10.77;;;;;;;;;;4954717;28;20039;-61
2023/07/07 06:11:07;;;;;;;13.82;10.27;;;;;;;;;;4954784;28;20127;-59
2023/07/07 06:13:33;;;;;;;16.95;10.60;;;;;;;;;;4945777;28;20489;-59
2023/07/07 06:15:59;;;;;;;13.75;10.65;;;;;;;;;;4954439;28;20034;-58
2023/07/07 06:18:26;;;;;;;15.57;10.68;;;;;;;;;;4946756;28;20445;-59
2023/07/07 06:20:53;;;;;;;12.40;9.93;;;;;;;;;;4948959;28;20040;-61
2023/07/07 06:23:21;;;;;;;14.02;9.40;;;;;;;;;;4947173;28;20062;-59
2023/07/07 06:25:48;;;;;;;13.02;10.15;;;;;;;;;;4981592;28;20118;-59
2023/07/07 06:28:15;;;;;;;16.92;9.15;;;;;;;;;;4951636;28;20401;-59
2023/07/07 06:30:41;;;;;;;13.45;9.68;;;;;;;;;;4947134;28;20051;-60
2023/07/07 06:33:07;;;;;;;15.15;9.50;;;;;;;;;;4950247;28;20506;-60
2023/07/07 06:35:33;;;;;;;14.43;10.27;;;;;;;;;;4947203;28;20453;-59
2023/07/07 06:38:02;;;;;;;17.40;10.57;;;;;;;;;;4955082;28;20439;-60
2023/07/07 06:40:29;;;;;;;12.50;8.93;;;;;;;;;;4982575;28;20039;-60
2023/07/07 06:42:58;;;;;;;16.60;9.90;;;;;;;;;;4947690;28;20111;-60
2023/07/07 06:45:25;;;;;;;13.90;8.75;;;;;;;;;;4951992;28;20039;-59
2023/07/07 06:47:53;;;;;;;13.30;9.23;;;;;;;;;;4952590;28;20118;-60
2023/07/07 06:50:26;;;;;;;13.88;9.73;;;;;;;;;;4946867;28;20094;-59
2023/07/07 06:52:53;;;;;;;13.13;9.27;;;;;;;;;;4978076;28;20490;-59
2023/07/07 06:55:21;;;;;;;12.35;8.60;;;;;;;;;;4981415;28;20035;-60
2023/07/07 06:57:48;;;;;;;14.15;8.20;;;;;;;;;;4952200;28;20051;-60
2023/07/07 07:00:14;;;;;;;11.95;7.72;;;16.90;99.90;;;;;;4954329;28;20035;-61
2023/07/07 07:02:41;;;;;;;12.40;7.75;;;;;;;;;;4961573;28;20512;-59
2023/07/07 07:05:08;;;;;;;11.57;7.88;;;;;;;;;;4951293;28;20074;-60
2023/07/07 07:07:34;;;;;;;12.38;7.43;;;17.00;99.90;;;;;;4960376;28;20496;-60
2023/07/07 07:10:05;;;;;;;12.70;7.72;;;17.20;99.90;;;;;;4956375;28;20103;-59
2023/07/07 07:12:32;;;;;;;10.60;7.50;;;;;;;;;;4962410;28;20069;-61
2023/07/07 07:14:58;;;;;;;10.57;7.63;;;17.20;99.90;;;;;;4949876;28;20050;-61
2023/07/07 07:17:26;;;;;;;14.35;6.95;;;;;;;;;;4950190;28;20035;-60
2023/07/07 07:19:52;;;;;;;9.65;6.47;;;;;;;;;;4955782;28;20093;-61
2023/07/07 07:22:20;;;;;;;12.57;7.43;;;;;;;;;;4942825;28;20046;-59
2023/07/07 07:24:48;;;;;;;10.23;6.32;;;;;;;;;;4956036;28;20473;-59
2023/07/07 07:27:15;;;;;;;11.02;6.28;;;;;;;;;;4960101;28;20042;-59
2023/07/07 07:29:51;;;;;;;10.70;6.35;;;;;;;;;;4962682;28;20493;-60
2023/07/07 07:32:17;;;;;;;13.02;6.70;;;;;;;;;;4957955;28;20141;-59
2023/07/07 07:34:44;;;;;;;11.45;6.45;;;;;;;;;;4958374;28;20613;-61
2023/07/07 07:37:10;;;;;;;11.95;6.30;;;18.00;99.90;;;;;;4982526;28;20409;-61
2023/07/07 07:39:36;;;;;;;11.20;6.28;;;;;;;;;;4953405;28;20043;-59
2023/07/07 07:42:03;;;;;;;9.45;6.38;;;18.20;99.90;;;;;;4953768;28;20046;-57
2023/07/07 07:44:29;;;;;;;11.00;6.75;;;18.60;99.90;;;;;;4958554;28;20035;-57
2023/07/07 07:46:57;;;;;;;11.40;5.88;;;;;;;;;;4963999;28;20031;-54
2023/07/07 07:49:25;;;;;;;9.27;5.93;;;;;;;;;;4954018;28;20047;-57
2023/07/07 07:51:52;;;;;;;10.07;5.45;;;;;;;;;;4966923;28;20384;-57
2023/07/07 07:54:19;;;;;;;10.35;5.32;;;;;;;;;;4951689;28;20409;-56
2023/07/07 07:56:47;;;;;;;9.20;5.28;;;;;;;;;;4953002;28;20053;-57
2023/07/07 07:59:14;;;;;;;10.68;4.97;;;;;;;;;;4957861;28;20578;-56
2023/07/07 08:01:39;;;;;;;9.95;5.28;;;19.10;99.90;;;;;;4951194;28;20699;-60
2023/07/07 08:04:06;;;;;;;9.82;5.03;;;18.70;99.90;;;;;;4956119;28;20031;-58
2023/07/07 08:06:32;;;;;;;7.63;4.60;;;18.90;99.90;;;;;;4950990;28;20633;-59
2023/07/07 08:08:58;;;;;;;7.90;4.55;;;19.20;53.70;;;;;;4939730;29;20078;-60
2023/07/07 08:11:43;;;;;;;7.53;4.28;;;;;;;;;;4952510;28;20075;-57
2023/07/07 08:14:13;;;;;;;9.27;4.70;;;19.50;9.80;;;;;;4955118;28;20498;-60
2023/07/07 08:16:38;;;;;;;10.25;4.90;;;19.60;1.00;;;;;;4954580;28;20046;-60
2023/07/07 08:19:05;;;;;;;7.13;4.32;;;;;;;;;;4958014;28;20149;-59
2023/07/07 08:21:31;;;;;;;8.55;4.00;;;19.70;26.70;;;;;;4954729;28;20039;-57
2023/07/07 08:23:57;;;;;;;8.90;4.93;;;19.30;1.00;;;;;;4959297;28;20484;-59
2023/07/07 08:26:23;;;;;;;8.75;4.05;;;19.50;1.00;;;;;;4954663;28;20039;-60
2023/07/07 08:28:50;;;;;;;7.05;3.78;;;;;;;;;;4951901;28;20134;-60
2023/07/07 08:31:18;;;;;;;8.60;4.47;;;;;;;;;;4957429;28;20118;-61
2023/07/07 08:33:47;;;;;;;10.35;3.63;;;;;;;;;;4955295;28;20057;-61
2023/07/07 08:36:13;;;;;;;8.00;3.67;;;20.00;1.00;;;;;;4950409;28;20509;-61
2023/07/07 08:38:39;;;;;;;7.95;4.07;;;20.00;99.90;;;;;;4951907;28;20039;-58
2023/07/07 08:41:06;;;;;;;6.85;3.50;;;;;;;;;;4954133;28;20053;-59
2023/07/07 08:43:32;;;;;;;10.65;4.22;;;20.40;99.90;;;;;;4945418;28;20053;-59
2023/07/07 08:45:59;;;;;;;7.53;3.90;;;;;;;;;;4951231;28;20035;-60
2023/07/07 08:48:28;;;;;;;7.35;4.25;;;;;;;;;;4951460;28;20497;-59
2023/07/07 08:51:00;;;;;;;8.15;4.45;;;20.50;99.90;;;;;;4981582;28;20098;-59
2023/07/07 08:54:06;;;;;;;8.13;4.15;;;20.70;99.90;;;;;;4942876;28;20404;-59
2023/07/07 08:56:45;;;;;;;7.95;3.20;;;20.70;99.90;;;;;;4944668;28;20047;-60
2023/07/07 08:59:18;;;;;;;5.78;2.50;;;;;;;;;;4951319;28;20162;-60
2023/07/07 09:02:12;;;;;;;6.82;2.55;;;21.10;42.80;;;;;;4951294;28;20523;-59
2023/07/07 09:04:56;;;;;;;7.05;3.25;;;20.80;1.00;;;;;;4946672;28;20078;-59
2023/07/07 09:07:26;;;;;;;6.78;2.97;;;;;;;;;;4957432;28;20054;-61
2023/07/07 09:10:04;;;;;;;7.82;3.08;;;;;;;;;;4950957;28;20405;-59
2023/07/07 09:12:42;;;;;;;5.72;2.70;;;21.10;99.90;;;;;;4952711;28;20047;-61
2023/07/07 09:15:17;;;;;;;6.63;2.38;;;;;;;;;;4949274;28;20035;-59
2023/07/07 09:17:43;;;;;;;;;;;;;;;;;;4954096;28;20047;-60
2023/07/07 09:20:12;;;;;;;7.65;3.15;;;;;;;;;;4960195;28;19918;-59
2023/07/07 09:22:48;;;;;;;7.55;2.75;;;;;;;;;;4956612;28;20114;-58
2023/07/07 09:25:20;;;;;;;5.57;2.55;;;;;;;;;;4957862;28;20039;-60
2023/07/07 09:27:51;;;;;;;6.60;2.60;;;;;;;;;;4953507;28;20109;-60
2023/07/07 09:30:34;;;;;;;7.15;3.25;;;;;;;;;;4954248;28;20408;-60
2023/07/07 09:33:00;;;;;;;8.50;3.05;;;21.80;87.90;;;;;;4956597;28;20111;-59
2023/07/07 09:35:31;;;;;;;5.90;2.60;;;;;;;;;;4962083;28;20066;-59
2023/07/07 09:38:09;;;;;;;5.35;2.30;;;22.30;1.00;;;;;;4950751;28;20646;-59
2023/07/07 09:40:52;;;;;;;6.07;2.40;;;22.30;1.00;;;;;;4953384;28;20040;-58
2023/07/07 09:43:32;;;;;;;5.97;2.28;;;;;;;;;;4977984;28;20122;-59
2023/07/07 09:46:04;;;;;;;6.47;2.45;;;;;;;;;;4957358;28;20060;-59
2023/07/07 09:48:33;;;;;;;6.00;2.55;;;;;;;;;;4954045;28;20133;-59
2023/07/07 09:51:10;;;;;;;5.10;2.17;;;22.30;99.90;;;;;;4959461;28;20082;-59
2023/07/07 09:53:37;;;;;;;7.70;2.88;;;;;;;;;;4953738;28;20050;-59
2023/07/07 09:56:03;;;;;;;6.93;3.20;;;22.80;99.90;;;;;;4961953;28;20046;-59
2023/07/07 09:58:39;;;;;;;7.82;2.72;;;22.60;99.90;;;;;;4951845;28;20110;-59
2023/07/07 10:01:05;;;;;;;5.72;2.10;;;22.70;99.90;;;;;;4958607;28;20039;-60
2023/07/07 10:03:41;;;;;;;5.43;2.33;;;;;;;;;;4961362;28;20057;-60
2023/07/07 10:06:51;;;;;;;7.72;3.53;;;22.60;99.90;;;;;;4970458;28;20031;-60
2023/07/07 10:09:17;;;;;;;5.88;2.92;;;22.80;99.90;;;;;;4945970;28;20543;-60
2023/07/07 10:11:44;;;;;;;5.70;2.53;;;22.60;99.90;;;;;;4947789;28;20043;-60
2023/07/07 10:14:13;;;;;;;6.55;2.63;;;22.60;99.90;;;;;;4949441;28;20042;-60
2023/07/07 10:16:59;;;;;;;6.85;2.40;;;;;;;;;;4955596;28;20098;-60
2023/07/07 10:19:25;;;;;;;6.45;2.40;;;22.80;99.90;;;;;;4948509;28;20039;-60
2023/07/07 10:21:51;;;;;;;7.75;2.60;;;23.20;99.90;;;;;;4953447;28;20118;-61
2023/07/07 10:24:16;;;;;;;8.30;2.42;;;23.20;99.90;;;;;;4956614;28;20054;-60
2023/07/07 10:26:47;;;;;;;6.00;2.55;;;;;;;;;;4962932;28;20035;-59
2023/07/07 10:29:21;;;;;;;5.28;2.28;;;23.20;99.90;;;;;;4956491;28;20053;-59
2023/07/07 10:31:48;;;;;;;5.70;2.55;;;23.10;99.90;;;;;;4953870;28;20156;-58
2023/07/07 10:34:34;;;;;;;7.10;2.55;;;;;;;;;;4956278;28;20555;-59
2023/07/07 10:37:00;;;;;;;6.38;2.55;;;23.40;99.90;;;;;;4955625;28;20058;-60
2023/07/07 10:39:28;;;;;;;5.75;2.58;;;23.50;99.90;;;;;;4956647;28;20039;-59
2023/07/07 10:41:54;;;;;;;6.60;2.95;;;23.60;99.90;;;;;;4953641;28;20043;-58
2023/07/07 10:44:24;;;;;;;8.52;2.83;;;23.40;99.90;;;;;;4961110;28;20492;-59
2023/07/07 10:46:49;;;;;;;8.25;3.08;;;24.00;99.90;;;;;;4953318;28;20035;-59
2023/07/07 10:49:18;;;;;;;6.32;2.47;;;23.90;99.90;;;;;;4955609;28;20510;-59
2023/07/07 10:51:57;;;;;;;6.50;2.88;;;;;;;;;;4947546;28;20039;-59
2023/07/07 10:54:32;;;;;;;7.55;2.80;;;;;;;;;;4954652;28;20051;-60
2023/07/07 10:57:37;;;;;;;6.43;2.97;;;23.90;99.90;;;;;;4951870;28;20159;-60
2023/07/07 11:00:34;;;;;;;7.55;2.97;;;24.20;99.90;;;;;;4949509;28;20074;-59
2023/07/07 11:03:12;;;;;;;6.28;2.15;;;23.70;99.90;;;;;;4954958;28;20047;-59
2023/07/07 11:05:49;;;;;;;5.28;2.50;;;24.00;99.90;;;;;;4952908;28;20039;-57
2023/07/07 11:08:21;;;;;;;5.85;2.30;;;24.30;99.90;;;;;;4953785;28;20074;-58
2023/07/07 11:11:07;;;;;;;6.30;2.65;;;24.20;99.90;;;;;;4956308;28;20039;-59
2023/07/07 11:14:04;;;;;;;5.60;2.67;;;24.50;99.90;;;;;;4960454;28;20050;-57
2023/07/07 11:16:48;;;;;;;8.07;2.60;;;24.40;99.90;;;;;;4956276;28;20134;-58
2023/07/07 11:19:51;;;;;;;7.65;3.10;;;24.40;99.90;;;;;;4959255;28;20043;-58
2023/07/07 11:22:17;;;;;;;7.22;2.65;;;24.30;99.90;;;;;;4952564;28;20671;-58
2023/07/07 11:24:51;;;;;;;6.65;2.80;;;24.20;99.90;;;;;;4956729;28;20047;-58
2023/07/07 11:27:35;;;;;;;7.13;2.78;;;24.40;99.90;;;;;;4955131;28;20039;-59
2023/07/07 11:30:28;;;;;;;5.53;2.65;;;24.40;99.90;;;;;;4965895;28;20104;-58
2023/07/07 11:33:03;;;;;;;5.00;2.38;;;24.50;99.90;;;;;;4944355;28;20151;-59
2023/07/07 11:35:58;;;;;;;6.20;2.75;;;24.70;99.90;;;;;;4961461;28;20042;-57
2023/07/07 11:38:54;;;;;;;10.15;2.65;;;24.50;99.90;;;;;;4946179;28;20043;-65
2023/07/07 11:41:40;;;;;;;6.53;2.60;;;24.70;99.90;;;;;;4951218;28;20492;-64
2023/07/07 11:44:21;;;;;;;5.70;2.38;;;25.00;99.90;;;;;;4950823;28;20053;-63
2023/07/07 11:47:04;;;;;;;6.35;2.70;;;25.10;99.90;;;;;;4951248;28;20035;-64
2023/07/07 11:50:03;;;;;;;5.95;2.22;;;25.00;99.90;;;;;;4952307;28;20039;-63
2023/07/07 11:52:38;;;;;;;6.78;2.40;;;25.40;99.90;;;;;;4948938;28;20121;-62
2023/07/07 11:55:31;;;;;;;6.22;2.90;;;25.50;99.90;;;;;;4956250;28;20394;-63
2023/07/07 11:58:01;;;;;;;7.55;2.58;;;;;;;;;;4952769;28;20042;-62
2023/07/07 12:00:32;;;;;;;5.95;2.80;;;25.40;99.90;;;;;;4961318;28;20052;-62
2023/07/07 12:03:18;;;;;;;6.47;2.30;;;25.40;99.90;;;;;;4952455;28;20046;-63
2023/07/07 12:05:47;;;;;;;5.20;2.13;;;25.70;99.90;;;;;;4947974;28;20192;-63
2023/07/07 12:08:20;;;;;;;6.15;2.20;;;25.90;99.90;;;;;;4951332;28;20126;-63
2023/07/07 12:10:53;;;;;;;5.57;2.50;;;26.00;99.90;;;;;;4946739;28;20489;-62
2023/07/07 12:13:27;;;;;;;5.77;2.30;;;26.00;99.90;;;;;;4952493;28;20050;-63
2023/07/07 12:16:23;;;;;;;5.82;2.42;;;26.40;99.90;;;;;;4946763;28;20319;-63
2023/07/07 12:18:56;;;;;;;7.82;2.92;;;26.60;99.90;;;;;;4942402;28;20413;-63
2023/07/07 12:21:33;;;;;;;6.30;2.75;;;26.60;99.90;;;;;;4954430;28;20057;-62
2023/07/07 12:24:38;;;;;;;5.00;2.33;;;26.90;99.90;;;;;;4948187;28;20050;-62
2023/07/07 12:27:17;;;;;;;5.55;2.40;;;27.10;99.90;;;;;;4943033;28;20046;-61
2023/07/07 12:29:45;;;;;;;6.10;2.55;;;27.40;99.90;;;;;;4954837;28;20042;-62
2023/07/07 12:32:12;;;;;;;5.38;2.60;;;27.30;99.90;;;;;;4953824;28;20413;-63
2023/07/07 12:35:04;;;;;;;8.52;2.80;;;27.60;99.90;;;;;;4951123;28;20043;-61
2023/07/07 12:37:32;;;;;;;8.23;2.72;;;27.80;93.00;;;;;;4950326;28;20500;-62
2023/07/07 12:40:08;;;;;;;6.05;2.75;;;28.10;98.00;;;;;;4948093;28;20070;-63
2023/07/07 12:42:37;;;;;;;6.28;3.20;;;28.80;62.10;;;;;;4955085;28;20043;-63
2023/07/07 12:45:15;;;;;;;5.32;2.55;;;29.90;78.80;;;;;;4958755;28;20111;-63
2023/07/07 12:47:41;;;;;;;6.93;2.70;;;32.20;97.10;;;;;;4949994;28;20039;-62
2023/07/07 12:50:25;;;;;;;6.35;2.45;;;33.70;43.00;;;;;;4953257;28;20039;-62
2023/07/07 12:52:53;;;;;;;6.18;2.88;;;35.20;52.50;;;;;;4958782;28;20125;-61
2023/07/07 12:55:24;;;;;;;6.85;2.70;;;35.70;29.60;;;;;;4950707;28;20042;-63
2023/07/07 12:58:06;;;;;;;4.82;2.35;;;36.10;35.40;;;;;;4957072;28;20042;-63
2023/07/07 13:00:34;;;;;;;5.32;2.63;;;36.10;24.60;;;;;;4944337;28;20043;-61
2023/07/07 13:03:08;;;;;;;5.60;2.70;;;36.10;31.90;;;;;;4950298;28;20044;-61
2023/07/07 13:05:34;;;;;;;5.07;2.60;;;35.70;31.30;;;;;;4947125;28;20058;-61
2023/07/07 13:08:01;;;;;;;5.45;2.38;;;35.80;14.70;;;;;;4956394;28;20035;-61
2023/07/07 13:10:42;;;;;;;5.40;2.03;;;35.70;28.60;;;;;;4947148;28;20496;-61
2023/07/07 13:13:23;;;;;;;6.13;2.40;;;35.40;15.60;;;;;;4951827;28;20035;-61
2023/07/07 13:15:49;;;;;;;5.57;2.50;;;35.80;12.00;;;;;;4942182;28;20106;-62
2023/07/07 13:18:16;;;;;;;5.95;2.50;;;36.20;1.00;;;;;;4949077;28;20027;-64
2023/07/07 13:20:47;;;;;;;5.40;2.17;;;36.00;1.40;;;;;;4963484;28;20392;-64
2023/07/07 13:23:22;;;;;;;4.82;2.20;;;36.00;1.00;;;;;;4951078;28;20031;-64
2023/07/07 13:25:49;;;;;;;5.53;2.30;;;36.20;1.00;;;;;;4946304;28;20137;-65
2023/07/07 13:28:16;;;;;;;6.03;2.20;;;36.50;1.00;;;;;;4955090;28;20071;-65
2023/07/07 13:30:45;;;;;;;5.20;2.25;;;36.50;1.00;;;;;;4949181;28;20043;-67
2023/07/07 13:33:13;;;;;;;5.35;2.17;;;36.60;1.00;;;;;;4950309;28;20043;-64
2023/07/07 13:35:45;;;;;;;5.35;2.25;;;36.60;1.00;;;;;;4954904;28;20504;-64
2023/07/07 13:38:16;;;;;;;6.97;2.50;;;35.90;1.00;;;;;;4958412;28;20039;-64
2023/07/07 13:40:42;;;;;;;5.28;2.30;;;35.40;1.00;;;;;;4950593;28;20050;-64
2023/07/07 13:43:25;;;;;;;4.70;2.35;;;35.50;6.20;;;;;;4954330;28;20035;-64
2023/07/07 13:46:00;;;;;;;5.88;2.92;;;34.70;5.00;;;;;;4955377;28;20047;-63
2023/07/07 13:48:28;;;;;;;6.30;2.67;;;34.70;21.40;;;;;;4954384;28;20039;-63
2023/07/07 13:50:55;;;;;;;5.00;2.55;;;35.00;1.00;;;;;;4953514;28;20560;-62
2023/07/07 13:53:21;;;;;;;6.65;3.00;;;34.60;1.00;;;;;;4949246;28;20106;-63
2023/07/07 13:55:50;;;;;;;5.60;2.50;;;34.60;1.00;;;;;;4950471;28;20084;-63
2023/07/07 13:58:19;;;;;;;6.38;2.85;;;34.40;1.00;;;;;;4949906;28;20126;-63
2023/07/07 14:00:52;;;;;;;6.65;2.60;;;34.00;1.00;;;;;;4949200;28;20047;-62
2023/07/07 14:03:21;;;;;;;5.40;2.60;;;34.10;1.00;;;;;;4955722;28;20196;-63
2023/07/07 14:05:52;;;;;;;5.68;2.40;;;34.80;1.00;;;;;;4950190;28;20039;-63
2023/07/07 14:08:22;;;;;;;6.22;2.33;;;34.30;1.00;;;;;;4949927;28;20046;-63
2023/07/07 14:10:50;;;;;;;6.60;2.80;;;34.60;1.00;;;;;;4953141;28;20437;-62
2023/07/07 14:13:21;;;;;;;6.03;2.38;;;34.60;1.00;;;;;;4953293;28;20044;-63
2023/07/07 14:15:47;;;;;;;5.80;2.67;;;34.20;1.00;;;;;;4953482;28;20581;-64